Time;durP1;ratioP1;P1;durP2;ratioP2;P2;SDS_P1;SDS_P2;PMS_P1;PMS_P2;Temp;Humidity;BMP_temperature;BMP_pressure;BME280_temperature;BME280_humidity;BME280_pressure;Samples;Min_cycle;Max_cycle;Signal;HPM_P1;HPM_P2
2021/12/18 00:01:31;;;;;;;18.00;3.75;;;8.00;99.90;;;;;;5091458;28;20043;-73
2021/12/18 00:03:57;;;;;;;15.13;3.58;;;7.90;99.90;;;;;;5078120;28;20084;-73
2021/12/18 00:06:27;;;;;;;16.35;3.70;;;8.00;99.90;;;;;;5089460;28;20056;-73
2021/12/18 00:08:54;;;;;;;19.52;3.83;;;7.90;99.90;;;;;;5082321;28;20044;-73
2021/12/18 00:11:19;;;;;;;16.80;3.55;;;7.90;99.90;;;;;;5090553;28;20051;-73
2021/12/18 00:13:45;;;;;;;15.00;3.67;;;7.90;99.90;;;;;;5055257;28;20113;-73
2021/12/18 00:16:11;;;;;;;10.73;2.92;;;8.00;99.90;;;;;;5073563;28;20118;-73
2021/12/18 00:18:37;;;;;;;9.25;2.55;;;8.00;99.90;;;;;;5069923;28;20147;-73
2021/12/18 00:21:04;;;;;;;7.20;2.20;;;7.90;99.90;;;;;;5090474;28;20076;-73
2021/12/18 00:23:30;;;;;;;7.47;1.80;;;7.90;99.90;;;;;;5090017;28;20040;-73
2021/12/18 00:25:56;;;;;;;6.28;1.58;;;7.90;99.90;;;;;;5090289;28;20397;-73
2021/12/18 00:28:22;;;;;;;6.82;1.73;;;7.90;99.90;;;;;;5089174;28;20073;-73
2021/12/18 00:30:48;;;;;;;5.95;1.60;;;7.90;99.90;;;;;;5084906;28;20055;-73
2021/12/18 00:33:14;;;;;;;6.38;1.60;;;7.90;99.90;;;;;;5077616;28;20571;-73
2021/12/18 00:35:40;;;;;;;5.35;1.80;;;8.00;99.90;;;;;;5089202;28;20093;-73
2021/12/18 00:38:07;;;;;;;7.20;1.50;;;7.80;99.90;;;;;;5088074;28;20044;-73
2021/12/18 00:40:58;;;;;;;8.02;1.90;;;7.90;99.90;;;;;;5088361;28;20039;-74
2021/12/18 00:43:28;;;;;;;8.90;1.80;;;7.90;99.90;;;;;;5089695;28;20047;-73
2021/12/18 00:45:54;;;;;;;8.45;1.77;;;7.80;99.90;;;;;;5087139;28;20151;-73
2021/12/18 00:48:20;;;;;;;10.85;2.13;;;7.80;99.90;;;;;;5115404;27;20151;-73
2021/12/18 00:50:46;;;;;;;9.88;1.95;;;7.80;99.90;;;;;;5089927;28;20040;-73
2021/12/18 00:53:12;;;;;;;9.23;1.65;;;7.80;99.90;;;;;;5079826;28;20052;-73
2021/12/18 00:55:38;;;;;;;8.52;1.85;;;7.80;99.90;;;;;;5082590;28;20102;-73
2021/12/18 00:58:04;;;;;;;7.40;1.60;;;7.80;99.90;;;;;;5082675;28;20102;-74
2021/12/18 01:00:31;;;;;;;8.93;2.03;;;7.70;99.90;;;;;;5075665;28;20044;-73
2021/12/18 01:03:00;;;;;;;6.07;1.60;;;7.80;99.90;;;;;;5086348;28;20059;-73
2021/12/18 01:05:27;;;;;;;10.10;2.05;;;7.80;99.90;;;;;;5090356;28;20044;-73
2021/12/18 01:07:58;;;;;;;9.23;2.03;;;7.70;99.90;;;;;;5070246;28;20109;-73
2021/12/18 01:10:48;;;;;;;8.98;1.80;;;7.80;99.90;;;;;;5089729;28;20425;-73
2021/12/18 01:13:19;;;;;;;8.98;1.83;;;7.70;99.90;;;;;;5077129;28;20048;-73
2021/12/18 01:15:52;;;;;;;9.65;2.10;;;8.00;99.90;;;;;;5086263;28;20374;-73
2021/12/18 01:23:47;;;;;;;14.18;2.30;;;7.70;99.90;;;;;;5087394;28;20047;-73
2021/12/18 01:26:13;;;;;;;16.70;2.85;;;7.80;99.90;;;;;;5087921;28;20040;-74
2021/12/18 01:28:39;;;;;;;18.20;2.47;;;7.80;99.90;;;;;;5071748;28;20036;-74
2021/12/18 01:31:06;;;;;;;12.55;2.20;;;7.80;99.90;;;;;;5086861;28;20044;-74
2021/12/18 01:33:32;;;;;;;15.02;2.42;;;7.80;99.90;;;;;;5096321;28;20042;-74
2021/12/18 01:36:00;;;;;;;13.38;2.35;;;7.70;99.90;;;;;;5089452;28;20052;-73
2021/12/18 01:38:29;;;;;;;10.45;2.00;;;7.70;99.90;;;;;;5075101;28;20056;-73
2021/12/18 01:40:55;;;;;;;13.40;2.28;;;7.80;99.90;;;;;;5084641;28;20047;-73
2021/12/18 01:54:12;;;;;;;8.95;2.38;;;7.70;99.90;;;;;;5094484;28;20177;-74
2021/12/18 01:56:39;;;;;;;11.40;2.13;;;7.70;99.90;;;;;;5078343;28;20048;-73
2021/12/18 01:59:04;;;;;;;10.60;2.33;;;7.70;99.90;;;;;;5090673;28;20044;-73
2021/12/18 02:01:30;;;;;;;6.22;1.80;;;7.70;99.90;;;;;;5086007;28;20495;-73
2021/12/18 02:03:56;;;;;;;11.10;2.05;;;7.70;99.90;;;;;;5087732;28;20051;-73
2021/12/18 02:06:23;;;;;;;10.40;1.98;;;7.70;99.90;;;;;;5074870;28;20063;-73
2021/12/18 02:08:49;;;;;;;11.73;2.22;;;7.70;99.90;;;;;;5086961;28;20040;-73
2021/12/18 02:14:06;;;;;;;9.38;2.20;;;7.70;99.90;;;;;;5084843;28;20044;-73
2021/12/18 02:22:11;;;;;;;7.07;1.52;;;7.70;99.90;;;;;;5088416;28;20048;-73
2021/12/18 02:24:37;;;;;;;7.32;1.77;;;7.70;99.90;;;;;;5119178;27;20606;-74
2021/12/18 02:27:03;;;;;;;7.10;1.55;;;7.70;99.90;;;;;;5070266;28;20055;-73
2021/12/18 02:29:31;;;;;;;6.57;1.77;;;7.70;99.90;;;;;;5085407;28;20145;-73
2021/12/18 02:31:57;;;;;;;9.70;1.92;;;7.60;99.90;;;;;;5072875;28;20044;-74
2021/12/18 02:34:28;;;;;;;14.20;2.05;;;7.70;99.90;;;;;;5082402;28;20182;-74
2021/12/18 02:37:01;;;;;;;14.50;1.92;;;7.60;99.90;;;;;;5075618;28;20055;-73
2021/12/18 02:42:29;;;;;;;12.27;1.75;;;7.70;99.90;;;;;;5061808;28;20586;-73
2021/12/18 02:44:55;;;;;;;11.65;2.10;;;7.70;99.90;;;;;;5083306;28;20379;-73
2021/12/18 02:47:21;;;;;;;13.88;2.15;;;7.70;99.90;;;;;;5094282;28;20173;-73
2021/12/18 02:49:49;;;;;;;22.20;2.00;;;7.70;99.90;;;;;;5088086;28;20068;-73
2021/12/18 02:52:16;;;;;;;12.07;1.90;;;7.70;99.90;;;;;;5104486;28;20047;-73
2021/12/18 02:54:42;;;;;;;22.58;2.58;;;7.70;99.90;;;;;;5070978;28;20044;-73
2021/12/18 02:57:09;;;;;;;15.07;2.40;;;7.70;99.90;;;;;;5087609;28;20044;-74
2021/12/18 02:59:42;;;;;;;20.88;2.22;;;7.70;99.90;;;;;;5092612;28;20677;-73
2021/12/18 03:02:10;;;;;;;23.33;2.38;;;7.70;99.90;;;;;;5076726;28;20056;-73
2021/12/18 03:04:37;;;;;;;17.23;2.25;;;7.70;99.90;;;;;;5074980;28;20091;-73
2021/12/18 03:07:06;;;;;;;12.75;2.20;;;7.70;99.90;;;;;;5073074;28;20044;-74
2021/12/18 03:23:28;;;;;;;13.30;1.90;;;7.60;99.90;;;;;;5075403;28;20097;-73
2021/12/18 03:25:59;;;;;;;14.52;1.88;;;7.70;99.90;;;;;;5089763;28;20052;-73
2021/12/18 03:28:29;;;;;;;10.02;1.75;;;7.70;99.90;;;;;;5119380;27;20051;-74
2021/12/18 03:30:55;;;;;;;8.65;1.60;;;7.70;99.90;;;;;;5082619;28;20036;-74
2021/12/18 03:33:23;;;;;;;15.20;2.05;;;7.60;99.90;;;;;;5071888;28;20040;-73
2021/12/18 03:35:49;;;;;;;13.15;1.80;;;7.60;99.90;;;;;;5086628;28;20127;-73
2021/12/18 03:38:14;;;;;;;11.18;2.00;;;7.60;99.90;;;;;;5073152;28;20427;-74
2021/12/18 03:40:41;;;;;;;16.65;2.08;;;7.60;99.90;;;;;;5090234;28;20059;-74
2021/12/18 03:43:06;;;;;;;8.00;1.63;;;7.60;99.90;;;;;;5089668;28;20094;-73
2021/12/18 03:45:32;;;;;;;11.52;1.70;;;7.50;99.90;;;;;;5067504;28;20415;-73
2021/12/18 03:47:58;;;;;;;10.13;1.67;;;7.50;99.90;;;;;;5089192;28;20548;-74
2021/12/18 03:50:24;;;;;;;9.40;1.50;;;7.60;99.90;;;;;;5087541;28;20489;-74
2021/12/18 03:52:49;;;;;;;13.68;1.90;;;7.60;99.90;;;;;;5073194;28;20392;-74
2021/12/18 03:55:15;;;;;;;10.75;1.40;;;7.60;99.90;;;;;;5090377;28;20139;-74
2021/12/18 03:57:41;;;;;;;8.98;1.50;;;7.60;99.90;;;;;;5090361;28;20127;-74
2021/12/18 04:00:11;;;;;;;9.70;1.27;;;7.60;99.90;;;;;;5090732;28;20550;-74
2021/12/18 04:02:36;;;;;;;11.43;1.63;;;7.60;99.90;;;;;;5087905;28;20040;-74
2021/12/18 04:05:03;;;;;;;9.90;1.30;;;7.60;99.90;;;;;;5087439;28;20051;-74
2021/12/18 04:07:29;;;;;;;11.80;1.65;;;7.60;99.90;;;;;;5090181;28;20093;-75
2021/12/18 04:09:54;;;;;;;12.77;1.70;;;7.50;99.90;;;;;;5068772;28;20044;-74
2021/12/18 04:12:20;;;;;;;16.08;1.98;;;7.60;99.90;;;;;;5087731;28;20043;-74
2021/12/18 04:14:46;;;;;;;13.60;1.83;;;7.60;99.90;;;;;;5056023;28;20212;-74
2021/12/18 04:17:12;;;;;;;18.35;2.22;;;7.60;99.90;;;;;;5086524;28;20049;-74
2021/12/18 04:19:37;;;;;;;16.48;1.90;;;7.60;99.90;;;;;;5089368;28;20360;-74
2021/12/18 04:22:03;;;;;;;14.07;1.98;;;7.60;99.90;;;;;;5090451;28;20393;-73
2021/12/18 04:24:29;;;;;;;12.07;1.98;;;7.60;99.90;;;;;;5086006;28;20040;-74
2021/12/18 04:26:55;;;;;;;16.55;1.92;;;7.60;99.90;;;;;;5090185;28;20466;-74
2021/12/18 04:29:21;;;;;;;17.50;2.20;;;7.70;99.90;;;;;;5086266;28;20045;-74
2021/12/18 04:31:47;;;;;;;17.27;2.00;;;7.70;99.90;;;;;;5073301;28;20040;-73
2021/12/18 04:34:12;;;;;;;14.43;2.30;;;7.70;99.90;;;;;;5087489;28;20187;-73
2021/12/18 04:36:38;;;;;;;17.55;2.20;;;7.70;99.90;;;;;;5090174;28;20036;-74
2021/12/18 04:39:05;;;;;;;12.55;2.00;;;7.70;99.90;;;;;;5089371;28;20055;-74
2021/12/18 04:41:49;;;;;;;21.05;2.20;;;7.70;99.90;;;;;;5073497;28;20048;-73
2021/12/18 04:44:15;;;;;;;15.70;1.73;;;7.70;99.90;;;;;;5072937;28;20048;-74
2021/12/18 04:46:41;;;;;;;17.90;2.15;;;7.70;99.90;;;;;;5090143;28;20130;-74
2021/12/18 04:49:07;;;;;;;10.90;1.80;;;7.90;99.90;;;;;;5087074;28;20156;-74
2021/12/18 04:51:33;;;;;;;15.68;2.17;;;7.70;99.90;;;;;;5069609;28;20088;-74
2021/12/18 04:53:59;;;;;;;13.15;1.95;;;7.70;99.90;;;;;;5084594;28;20463;-73
2021/12/18 04:56:24;;;;;;;17.33;2.45;;;7.90;99.90;;;;;;5089257;28;20472;-74
2021/12/18 04:58:50;;;;;;;30.50;2.90;;;7.70;99.90;;;;;;5089167;28;20463;-75
2021/12/18 05:01:17;;;;;;;26.98;2.65;;;7.80;99.90;;;;;;5087874;28;20048;-74
2021/12/18 05:03:44;;;;;;;21.30;2.65;;;7.70;99.90;;;;;;5114931;28;20067;-74
2021/12/18 05:06:10;;;;;;;18.13;2.97;;;7.70;99.90;;;;;;5116613;28;20102;-73
2021/12/18 05:08:36;;;;;;;22.00;3.00;;;7.80;99.90;;;;;;5086576;28;20036;-74
2021/12/18 05:11:02;;;;;;;18.42;2.53;;;7.80;99.90;;;;;;5091909;28;20039;-73
2021/12/18 05:13:28;;;;;;;27.55;3.17;;;7.80;99.90;;;;;;5086733;28;20248;-73
2021/12/18 05:15:53;;;;;;;14.43;2.90;;;7.80;99.90;;;;;;5087730;28;20044;-74
2021/12/18 05:18:22;;;;;;;16.17;2.90;;;7.80;99.90;;;;;;5069922;28;21236;-73
2021/12/18 05:20:48;;;;;;;19.85;3.10;;;7.90;99.90;;;;;;5076230;28;20033;-73
2021/12/18 05:23:14;;;;;;;21.83;3.47;;;7.90;99.90;;;;;;5087341;28;20093;-73
2021/12/18 05:25:39;;;;;;;34.17;3.75;;;7.90;99.90;;;;;;5090323;28;20040;-74
2021/12/18 05:28:05;;;;;;;15.85;2.70;;;7.80;99.90;;;;;;5092056;28;20477;-73
2021/12/18 05:30:31;;;;;;;22.45;3.63;;;7.90;99.90;;;;;;5087644;28;20458;-74
2021/12/18 05:32:57;;;;;;;11.23;2.60;;;7.90;99.90;;;;;;5097612;28;20036;-74
2021/12/18 05:35:22;;;;;;;17.73;2.95;;;7.90;99.90;;;;;;5081096;28;20040;-74
2021/12/18 05:37:53;;;;;;;9.18;2.20;;;8.00;99.90;;;;;;5093812;28;20166;-74
2021/12/18 05:40:24;;;;;;;14.65;2.70;;;8.00;99.90;;;;;;5102020;28;20056;-74
2021/12/18 05:42:52;;;;;;;12.73;2.60;;;8.00;99.90;;;;;;5095471;28;20044;-74
2021/12/18 05:45:19;;;;;;;9.43;2.03;;;8.00;99.90;;;;;;5078496;28;20052;-75
2021/12/18 05:47:45;;;;;;;11.85;1.98;;;8.00;99.90;;;;;;5099964;28;20121;-74
2021/12/18 05:50:13;;;;;;;9.95;2.30;;;8.00;99.90;;;;;;5107940;28;20115;-73
2021/12/18 05:52:40;;;;;;;11.73;1.85;;;8.00;99.90;;;;;;5074630;28;20132;-75
2021/12/18 05:55:06;;;;;;;8.57;1.98;;;8.00;99.90;;;;;;5096080;28;20468;-75
2021/12/18 05:57:32;;;;;;;14.93;2.75;;;8.00;99.90;;;;;;5093165;28;20068;-74
2021/12/18 05:59:58;;;;;;;10.50;2.20;;;8.10;99.90;;;;;;5090671;28;20055;-73
2021/12/18 06:02:24;;;;;;;10.43;2.40;;;8.00;99.90;;;;;;5089038;28;20040;-74
2021/12/18 06:04:49;;;;;;;10.48;1.98;;;8.10;99.90;;;;;;5092427;28;20052;-73
2021/12/18 06:07:46;;;;;;;13.35;2.22;;;8.10;99.90;;;;;;5092534;28;20135;-74
2021/12/18 06:10:11;;;;;;;10.77;2.33;;;8.10;99.90;;;;;;5059878;28;20143;-74
2021/12/18 06:12:37;;;;;;;10.95;2.30;;;8.10;99.90;;;;;;5095139;28;20115;-73
2021/12/18 06:15:03;;;;;;;12.30;2.58;;;8.10;99.90;;;;;;5089670;28;20423;-74
2021/12/18 06:17:29;;;;;;;15.15;2.53;;;8.20;99.90;;;;;;5087457;28;20624;-73
2021/12/18 06:19:55;;;;;;;13.82;2.67;;;8.20;99.90;;;;;;5072003;28;20552;-73
2021/12/18 06:22:20;;;;;;;14.75;3.08;;;8.20;99.90;;;;;;5094982;28;20051;-74
2021/12/18 06:24:46;;;;;;;17.55;3.03;;;8.20;99.90;;;;;;5095648;28;20114;-74
2021/12/18 06:27:12;;;;;;;13.93;3.22;;;8.20;99.90;;;;;;5088357;28;20048;-73
2021/12/18 06:29:39;;;;;;;17.00;3.65;;;8.20;99.90;;;;;;5097545;28;20039;-74
2021/12/18 06:32:05;;;;;;;14.75;3.22;;;8.30;99.90;;;;;;5086403;28;20062;-74
2021/12/18 06:34:31;;;;;;;17.83;3.10;;;8.30;99.90;;;;;;5089182;28;20044;-74
2021/12/18 06:36:56;;;;;;;21.95;3.80;;;8.30;99.90;;;;;;5088585;28;20040;-74
2021/12/18 06:39:22;;;;;;;18.20;3.50;;;8.30;99.90;;;;;;5063545;28;20077;-74
2021/12/18 06:41:48;;;;;;;18.63;3.72;;;8.30;99.90;;;;;;5072862;28;20093;-74
2021/12/18 06:44:14;;;;;;;18.15;3.92;;;8.90;99.90;;;;;;5073961;28;20048;-74
2021/12/18 06:46:40;;;;;;;19.80;4.00;;;8.30;99.90;;;;;;5074014;28;20118;-74
2021/12/18 06:49:09;;;;;;;17.98;4.05;;;8.40;99.90;;;;;;5084759;28;20155;-73
2021/12/18 06:51:35;;;;;;;23.65;3.85;;;8.40;99.90;;;;;;5093853;28;20044;-74
2021/12/18 06:54:00;;;;;;;24.25;4.50;;;8.40;99.90;;;;;;5091981;28;20786;-74
2021/12/18 06:56:26;;;;;;;25.35;5.03;;;8.50;99.90;;;;;;5093809;28;20055;-74
2021/12/18 06:58:52;;;;;;;25.42;4.90;;;8.40;99.90;;;;;;5075557;28;20094;-74
2021/12/18 07:01:18;;;;;;;26.92;4.72;;;8.40;99.90;;;;;;5074210;28;20040;-74
2021/12/18 07:03:43;;;;;;;24.77;4.95;;;8.40;99.90;;;;;;5090074;28;20531;-76
2021/12/18 07:06:09;;;;;;;24.25;4.80;;;8.50;99.90;;;;;;5075455;28;20052;-75
2021/12/18 07:08:35;;;;;;;24.40;4.68;;;8.50;99.90;;;;;;5089067;28;20071;-74
2021/12/18 07:11:01;;;;;;;27.60;5.30;;;8.40;99.90;;;;;;5094948;28;20104;-74
2021/12/18 07:13:28;;;;;;;22.80;4.70;;;8.50;99.90;;;;;;5077453;28;20554;-75
2021/12/18 07:15:54;;;;;;;28.55;4.80;;;8.50;99.90;;;;;;5121981;27;20493;-74
2021/12/18 07:18:20;;;;;;;24.55;4.70;;;8.50;99.90;;;;;;5078031;28;20055;-75
2021/12/18 07:20:46;;;;;;;19.40;4.18;;;8.50;99.90;;;;;;5090882;28;20051;-74
2021/12/18 07:23:11;;;;;;;16.83;3.55;;;8.50;99.90;;;;;;5094950;28;20043;-74
2021/12/18 07:25:37;;;;;;;15.93;3.20;;;9.00;99.90;;;;;;5091503;28;20071;-74
2021/12/18 07:28:03;;;;;;;17.60;3.30;;;8.60;99.90;;;;;;5076542;28;20131;-74
2021/12/18 07:30:29;;;;;;;13.25;2.92;;;8.60;99.90;;;;;;5078118;28;20083;-74
2021/12/18 07:32:54;;;;;;;11.35;2.70;;;8.60;99.90;;;;;;5092821;28;20113;-74
2021/12/18 07:35:20;;;;;;;8.80;2.55;;;8.60;99.90;;;;;;5088647;28;20051;-75
2021/12/18 07:37:46;;;;;;;9.90;2.88;;;8.70;99.90;;;;;;5092047;28;20040;-74
2021/12/18 07:40:13;;;;;;;11.60;3.20;;;8.90;99.90;;;;;;5094963;28;20081;-74
2021/12/18 07:42:39;;;;;;;10.95;3.17;;;8.70;99.90;;;;;;5079796;28;20040;-74
2021/12/18 07:45:05;;;;;;;9.70;3.35;;;8.70;99.90;;;;;;5094675;28;20059;-74
2021/12/18 07:47:31;;;;;;;9.10;3.35;;;8.70;99.90;;;;;;5093925;28;20039;-75
2021/12/18 07:49:57;;;;;;;12.55;3.75;;;8.70;99.90;;;;;;5082662;28;20812;-74
2021/12/18 07:52:24;;;;;;;8.65;2.60;;;8.70;99.90;;;;;;5091297;28;20134;-74
2021/12/18 07:54:50;;;;;;;7.28;3.10;;;8.70;99.90;;;;;;5086730;28;20040;-75
2021/12/18 07:57:16;;;;;;;11.07;2.80;;;8.70;99.90;;;;;;5085687;28;20044;-74
2021/12/18 07:59:41;;;;;;;8.90;2.67;;;8.70;99.90;;;;;;5091963;28;20040;-75
2021/12/18 08:02:08;;;;;;;9.82;2.70;;;8.70;99.90;;;;;;5093292;28;20039;-74
2021/12/18 08:04:34;;;;;;;11.10;3.20;;;8.70;99.90;;;;;;5073176;28;20123;-74
2021/12/18 08:07:01;;;;;;;11.05;3.30;;;8.80;99.90;;;;;;5107948;27;20566;-74
2021/12/18 08:09:27;;;;;;;14.32;4.10;;;8.80;99.90;;;;;;5095345;28;20039;-74
2021/12/18 08:11:53;;;;;;;10.23;4.32;;;8.80;99.90;;;;;;5065475;28;20040;-74
2021/12/18 08:14:19;;;;;;;14.05;4.32;;;8.80;99.90;;;;;;5081656;28;20053;-74
2021/12/18 08:16:44;;;;;;;15.13;4.15;;;8.80;99.90;;;;;;5089845;28;20044;-74
2021/12/18 08:19:10;;;;;;;11.30;4.20;;;8.80;99.90;;;;;;5090564;28;20395;-74
2021/12/18 08:21:36;;;;;;;8.82;4.20;;;8.80;99.90;;;;;;5073624;28;20181;-74
2021/12/18 08:24:02;;;;;;;15.18;4.63;;;8.80;99.90;;;;;;5074340;28;20054;-73
2021/12/18 08:26:27;;;;;;;12.50;4.40;;;8.90;99.90;;;;;;5073690;28;20456;-73
2021/12/18 08:28:53;;;;;;;13.90;4.60;;;8.90;99.90;;;;;;5069273;28;20044;-73
2021/12/18 08:31:19;;;;;;;11.90;4.07;;;8.90;99.90;;;;;;5089598;28;20055;-73
2021/12/18 08:33:45;;;;;;;12.50;4.05;;;8.90;99.90;;;;;;5090969;28;20044;-73
2021/12/18 08:36:10;;;;;;;11.00;3.67;;;9.00;99.90;;;;;;5073681;28;20044;-73
2021/12/18 08:38:36;;;;;;;12.15;3.92;;;9.00;99.90;;;;;;5073867;28;20036;-73
2021/12/18 08:41:02;;;;;;;12.00;4.05;;;9.00;99.90;;;;;;5073896;28;20093;-73
2021/12/18 08:43:28;;;;;;;10.02;4.00;;;9.00;99.90;;;;;;5073813;28;20048;-74
2021/12/18 08:45:54;;;;;;;11.82;3.97;;;9.00;99.90;;;;;;5089609;28;20761;-73
2021/12/18 08:48:21;;;;;;;15.38;4.10;;;9.00;99.90;;;;;;5077021;28;20426;-73
2021/12/18 08:50:48;;;;;;;17.67;4.72;;;9.00;99.90;;;;;;5056470;28;20093;-75
2021/12/18 08:53:14;;;;;;;9.35;3.42;;;9.10;99.90;;;;;;5072148;28;20067;-74
2021/12/18 08:55:39;;;;;;;11.55;4.15;;;9.10;99.90;;;;;;5087748;28;20044;-74
2021/12/18 08:58:05;;;;;;;9.43;3.80;;;9.10;99.90;;;;;;5082520;28;20473;-73
2021/12/18 09:00:33;;;;;;;11.35;4.22;;;9.20;99.90;;;;;;5056351;28;20400;-73
2021/12/18 09:03:00;;;;;;;16.08;4.47;;;9.20;99.90;;;;;;5078075;28;20051;-74
2021/12/18 09:05:27;;;;;;;15.18;4.32;;;9.20;99.90;;;;;;5072396;28;20071;-73
2021/12/18 09:07:53;;;;;;;14.35;3.35;;;9.30;99.90;;;;;;5071725;28;20160;-73
2021/12/18 09:10:20;;;;;;;13.52;4.13;;;9.20;99.90;;;;;;5086964;28;20063;-73
2021/12/18 09:12:46;;;;;;;12.18;4.22;;;9.20;99.90;;;;;;5086557;28;20135;-74
2021/12/18 09:15:13;;;;;;;13.35;3.75;;;9.30;99.90;;;;;;5078313;28;20052;-73
2021/12/18 09:17:39;;;;;;;10.50;3.95;;;9.20;99.90;;;;;;5065390;28;20493;-74
2021/12/18 09:20:06;;;;;;;13.23;4.30;;;9.20;99.90;;;;;;5071729;28;20044;-73
2021/12/18 09:22:32;;;;;;;13.98;4.18;;;9.30;99.90;;;;;;5089362;28;20043;-73
2021/12/18 09:24:59;;;;;;;14.63;3.90;;;9.30;99.90;;;;;;5089072;28;20070;-73
2021/12/18 09:27:25;;;;;;;9.10;3.28;;;9.30;99.90;;;;;;5088196;28;20401;-73
2021/12/18 09:29:51;;;;;;;12.57;4.03;;;9.30;99.90;;;;;;5083585;28;20062;-74
2021/12/18 09:32:17;;;;;;;8.88;2.88;;;9.30;99.90;;;;;;5121920;28;20032;-74
2021/12/18 09:34:43;;;;;;;11.35;3.00;;;9.30;99.90;;;;;;5089138;28;20040;-73
2021/12/18 09:37:09;;;;;;;13.13;4.45;;;9.30;99.90;;;;;;5083004;28;20055;-74
2021/12/18 09:39:35;;;;;;;10.35;2.70;;;9.40;99.90;;;;;;5088395;28;20093;-73
2021/12/18 09:42:01;;;;;;;14.35;3.50;;;9.40;99.90;;;;;;5084252;28;20044;-74
2021/12/18 09:44:31;;;;;;;12.23;2.60;;;9.40;99.90;;;;;;5088828;28;20165;-73
2021/12/18 09:46:58;;;;;;;10.82;3.10;;;9.40;99.90;;;;;;5085163;28;20497;-75
2021/12/18 09:49:24;;;;;;;8.25;2.78;;;9.50;99.90;;;;;;5072211;28;20549;-73
2021/12/18 09:51:50;;;;;;;12.65;2.90;;;9.50;99.90;;;;;;5092091;28;20059;-73
2021/12/18 09:54:16;;;;;;;11.48;3.03;;;9.60;99.90;;;;;;5068389;28;20051;-74
2021/12/18 09:56:43;;;;;;;10.32;3.50;;;9.60;99.90;;;;;;5087667;28;20086;-74
2021/12/18 09:59:09;;;;;;;10.07;3.55;;;9.60;99.90;;;;;;5083632;28;20724;-73
2021/12/18 10:01:35;;;;;;;9.77;3.45;;;9.60;99.90;;;;;;5083589;28;20055;-73
2021/12/18 10:04:03;;;;;;;10.40;3.35;;;9.60;99.90;;;;;;5072463;28;20060;-73
2021/12/18 10:06:34;;;;;;;17.20;9.00;;;9.60;99.90;;;;;;5074737;28;20121;-74
2021/12/18 10:09:01;;;;;;;12.98;3.13;;;9.70;99.90;;;;;;5075776;28;20048;-74
2021/12/18 10:11:27;;;;;;;11.25;3.10;;;9.70;99.90;;;;;;5093425;28;20080;-74
2021/12/18 10:13:59;;;;;;;11.75;4.15;;;9.80;99.90;;;;;;5093428;28;20086;-75
2021/12/18 10:16:27;;;;;;;11.07;3.30;;;9.80;99.90;;;;;;5092975;28;20584;-74
2021/12/18 10:18:55;;;;;;;12.30;2.90;;;9.80;99.90;;;;;;5092745;28;20044;-75
2021/12/18 10:21:24;;;;;;;10.27;2.67;;;9.80;99.90;;;;;;5092831;28;20040;-74
2021/12/18 10:23:52;;;;;;;12.43;2.50;;;9.80;99.90;;;;;;5076320;28;20040;-74
2021/12/18 10:26:39;;;;;;;10.02;2.38;;;9.80;99.90;;;;;;5093076;28;20069;-74
2021/12/18 10:29:22;;;;;;;11.02;2.28;;;9.80;99.90;;;;;;5081511;28;20040;-73
2021/12/18 10:31:48;;;;;;;11.15;2.90;;;9.80;99.90;;;;;;5092896;28;20051;-74
2021/12/18 10:34:32;;;;;;;11.48;2.60;;;9.90;99.90;;;;;;5093256;28;20048;-73
2021/12/18 10:37:10;;;;;;;10.43;2.58;;;9.90;99.90;;;;;;5092640;28;20040;-73
2021/12/18 10:39:38;;;;;;;9.90;2.60;;;9.90;99.90;;;;;;5093346;28;20097;-73
2021/12/18 10:42:33;;;;;;;12.60;3.67;;;9.90;99.90;;;;;;5091562;28;20044;-74
2021/12/18 10:45:24;;;;;;;13.50;4.47;;;9.90;99.90;;;;;;5117469;27;20522;-74
2021/12/18 10:48:08;;;;;;;11.38;3.47;;;10.00;99.90;;;;;;5088665;28;20040;-74
2021/12/18 10:50:40;;;;;;;9.02;2.78;;;10.00;99.90;;;;;;5070688;28;20052;-74
2021/12/18 10:53:10;;;;;;;11.38;3.45;;;10.00;99.90;;;;;;5089792;28;20055;-73
2021/12/18 10:55:48;;;;;;;12.23;3.45;;;10.00;99.90;;;;;;5092584;28;20044;-74
2021/12/18 10:58:32;;;;;;;7.93;2.90;;;10.00;99.90;;;;;;5092067;28;20136;-74
2021/12/18 11:01:00;;;;;;;10.15;3.63;;;10.00;99.90;;;;;;5092187;28;20032;-74
2021/12/18 11:03:28;;;;;;;10.32;3.58;;;10.10;99.90;;;;;;5092751;28;20044;-74
2021/12/18 11:06:15;;;;;;;11.52;3.30;;;10.00;99.90;;;;;;5091902;28;20110;-74
2021/12/18 11:08:53;;;;;;;12.02;3.47;;;10.10;99.90;;;;;;5091980;28;20059;-74
2021/12/18 11:14:03;;;;;;;12.30;3.47;;;10.10;99.90;;;;;;5092303;28;20044;-74
2021/12/18 11:16:30;;;;;;;14.77;3.50;;;10.10;99.90;;;;;;5091534;28;20051;-75
2021/12/18 11:18:56;;;;;;;11.70;3.47;;;10.10;99.90;;;;;;5091846;28;20416;-74
2021/12/18 11:21:25;;;;;;;15.98;4.47;;;10.10;99.90;;;;;;5073870;28;20046;-74
2021/12/18 11:24:04;;;;;;;11.90;4.25;;;10.10;99.90;;;;;;5077845;28;20178;-75
2021/12/18 11:26:41;;;;;;;14.20;4.30;;;10.20;99.90;;;;;;5066181;28;20091;-73
2021/12/18 11:29:28;;;;;;;9.35;3.58;;;10.10;99.90;;;;;;5090523;28;20044;-73
2021/12/18 11:31:55;;;;;;;10.95;4.05;;;10.20;99.90;;;;;;5091960;28;20185;-73
2021/12/18 11:34:21;;;;;;;9.40;3.88;;;10.20;99.90;;;;;;5091526;28;20054;-73
2021/12/18 11:36:49;;;;;;;8.52;2.97;;;10.20;99.90;;;;;;5091465;28;20056;-73
2021/12/18 11:39:18;;;;;;;9.35;2.45;;;10.30;99.90;;;;;;5091244;28;20051;-73
2021/12/18 11:41:48;;;;;;;10.18;3.40;;;10.20;99.90;;;;;;5091825;28;20062;-73
2021/12/18 11:44:25;;;;;;;11.40;2.88;;;10.30;99.90;;;;;;5091369;28;20044;-73
2021/12/18 11:46:51;;;;;;;8.13;2.70;;;10.30;99.90;;;;;;5085069;28;20138;-73
2021/12/18 11:49:16;;;;;;;10.43;2.53;;;10.30;99.90;;;;;;5057312;28;20477;-73
2021/12/18 11:52:03;;;;;;;11.65;2.92;;;10.30;99.90;;;;;;5054063;28;20051;-73
2021/12/18 11:54:48;;;;;;;8.70;3.05;;;10.30;99.90;;;;;;5093527;28;20048;-74
2021/12/18 11:57:37;;;;;;;14.57;3.80;;;10.30;99.90;;;;;;5083609;28;20539;-74
2021/12/18 12:00:15;;;;;;;8.00;2.90;;;10.30;99.90;;;;;;5107665;28;20047;-73
2021/12/18 12:02:49;;;;;;;9.07;3.17;;;10.30;99.90;;;;;;5090323;28;20044;-73
2021/12/18 12:05:17;;;;;;;9.70;3.10;;;10.30;99.90;;;;;;5072417;28;20056;-73
2021/12/18 12:07:44;;;;;;;11.10;3.22;;;10.30;99.90;;;;;;5082711;28;20047;-73
2021/12/18 12:13:03;;;;;;;10.38;3.00;;;10.30;99.90;;;;;;5091094;28;20063;-73
2021/12/18 12:15:29;;;;;;;7.32;2.75;;;10.30;99.90;;;;;;5090008;28;20052;-72
2021/12/18 12:17:56;;;;;;;9.57;3.17;;;10.30;99.90;;;;;;5090733;28;20093;-73
2021/12/18 12:20:47;;;;;;;11.07;3.10;;;10.30;99.90;;;;;;5085178;28;20079;-74
2021/12/18 12:23:14;;;;;;;10.57;3.38;;;10.30;99.90;;;;;;5070020;28;20044;-72
2021/12/18 12:25:51;;;;;;;10.25;2.97;;;10.30;99.90;;;;;;5090699;28;20456;-73
2021/12/18 12:28:24;;;;;;;9.70;3.03;;;10.30;99.90;;;;;;5068471;28;20488;-72
2021/12/18 12:31:06;;;;;;;8.75;2.83;;;10.40;99.90;;;;;;5090186;28;20047;-72
2021/12/18 12:33:35;;;;;;;6.72;2.83;;;10.30;99.90;;;;;;5089647;28;20369;-72
2021/12/18 12:36:03;;;;;;;13.82;3.30;;;10.40;99.90;;;;;;5089981;28;20058;-72
2021/12/18 12:38:52;;;;;;;8.15;2.72;;;10.30;99.90;;;;;;5089809;28;20117;-72
2021/12/18 12:41:26;;;;;;;9.20;3.15;;;10.30;99.90;;;;;;5089299;28;20051;-73
2021/12/18 12:43:53;;;;;;;12.73;3.30;;;10.30;99.90;;;;;;5090391;28;20040;-72
2021/12/18 12:46:20;;;;;;;10.20;2.65;;;10.30;99.90;;;;;;5072904;28;20048;-72
2021/12/18 12:49:11;;;;;;;8.40;2.50;;;10.30;99.90;;;;;;5073092;28;20472;-73
2021/12/18 12:51:59;;;;;;;8.80;2.88;;;10.30;99.90;;;;;;5090081;28;20036;-72
2021/12/18 12:54:51;;;;;;;9.70;2.88;;;10.30;99.90;;;;;;5089619;28;20079;-73
2021/12/18 12:57:23;;;;;;;9.45;3.28;;;10.30;99.90;;;;;;5071297;28;20044;-74
2021/12/18 12:59:53;;;;;;;9.77;2.85;;;10.30;99.90;;;;;;5089152;28;20047;-73
2021/12/18 13:02:21;;;;;;;8.18;2.55;;;10.30;99.90;;;;;;5089314;28;20082;-73
2021/12/18 13:04:47;;;;;;;7.22;2.85;;;10.30;99.90;;;;;;5055502;28;20390;-73
2021/12/18 13:07:13;;;;;;;11.30;3.60;;;10.30;99.90;;;;;;5067285;28;20369;-72
2021/12/18 13:09:46;;;;;;;12.65;3.03;;;10.30;99.90;;;;;;5081067;28;20052;-74
2021/12/18 13:12:12;;;;;;;7.47;2.60;;;10.30;99.90;;;;;;5071916;28;20063;-72
2021/12/18 13:14:40;;;;;;;7.75;2.75;;;10.30;99.90;;;;;;5072979;28;20051;-72
2021/12/18 13:17:28;;;;;;;12.45;3.65;;;10.30;99.90;;;;;;5089742;28;20059;-72
2021/12/18 13:19:55;;;;;;;13.30;3.95;;;10.50;99.90;;;;;;5070995;28;20036;-73
2021/12/18 13:22:25;;;;;;;13.30;3.85;;;10.30;99.90;;;;;;5071609;28;20083;-72
2021/12/18 13:25:06;;;;;;;10.40;3.25;;;10.20;99.90;;;;;;5089341;28;20055;-73
2021/12/18 13:27:33;;;;;;;9.73;3.10;;;10.20;99.90;;;;;;5088422;28;20108;-73
2021/12/18 13:30:35;;;;;;;11.00;3.05;;;10.20;99.90;;;;;;5087428;28;20052;-72
2021/12/18 13:33:04;;;;;;;9.02;3.00;;;10.10;99.90;;;;;;5048803;28;20158;-73
2021/12/18 13:35:33;;;;;;;10.60;2.92;;;10.10;99.90;;;;;;5072425;28;20573;-72
2021/12/18 13:38:06;;;;;;;13.68;2.95;;;10.20;99.90;;;;;;5089364;28;20051;-73
2021/12/18 13:40:51;;;;;;;11.77;3.28;;;10.10;99.90;;;;;;5090039;28;20044;-73
2021/12/18 13:43:20;;;;;;;10.50;3.22;;;10.10;99.90;;;;;;5102982;28;20052;-73